Eglin Air Force Base
KVPS : now visible

Airfield :











YOU CAN JOIN US ON...

 
LOGIN :

Register | Disclaimer

   EN    FR    IT 

 









Legend :    VFR   Marginal VFR   IFR   Intensive IFR   Very Intensive IFR
Visi :
Ceiling :
>= 8 km
>= 3000ft
5 to 8 km
1000 to 3000 ft
1500m to 5 km
500 to 1000 ft
800 to 1500m
200 to 500 ft
< 800m
< 200 ft
Symbols :   Thunderstorms  Fog  Heavy snow  Heavy precipitations  Wind > 20 kt






- Airport Elevation : 87 ft
- IATA code : VPS


KVPS - Eglin Air Force Base

CURRENT METAR :
  • 231456Z AUTO 11006KT 10SM BKN150 11/04 A3029 RMK AO2 SLP265 T01110036 51008 $

EXPIRED METARs :
  • 231356Z AUTO 08004KT 10SM CLR 08/00 A3029 RMK AO2 SLP265 T00791001 $
  • 231256Z AUTO 03005KT 10SM CLR 04/M01 A3029 RMK AO2 SLP265 T00361012 $

TAF TAF KVPS
Valid from the 23 at 10:00 until the 24 at 16:00 UTC


231000Z 2310/2416 VRB06KT 9999 FEW250 QNH3027INS
BECMG 2318/2319 15006KT 9999 FEW120 FEW250 QNH3022INS
BECMG 2403/2404 10006KT 9999 FEW025 SCT100 BKN150 BKN250 QNH3015INS
BECMG 2410/2411 13006KT 9000 BR VCSH BKN018 BKN025 OVC040 QNH2999INS
BECMG 2415/2416 17006KT 4800 DZ BR FEW005 OVC010 QNH3002INS TX17/2320Z TN03/2310Z



MET'MAP, your aeronautical weather chart ! - Copyright ORBIFLY December 2007 - Disclaimer

ORBIFLY MET'MAP TEAM :

Programming & Development : Alexandra Zaïnal
Concept & original design : Baudouin d'Aumeries
Assistance for programming : Marc-Olivier Méhu
Technical & hardware support : Manuel Goepfert

Contact : metmap@orbifly.com




SOURCES & CREDITS :

   NOAA       Earth
Advisory